Time;durP1;ratioP1;P1;durP2;ratioP2;P2;SDS_P1;SDS_P2;PMS_P1;PMS_P2;Temp;Humidity;BMP_temperature;BMP_pressure;BME280_temperature;BME280_humidity;BME280_pressure;Samples;Min_cycle;Max_cycle;Signal;HPM_P1;HPM_P2
2022/12/11 00:01:58;;;;;;;16.23;12.10;;;-1.50;99.90;;;;;;5070890;28;20754;-69
2022/12/11 00:04:24;;;;;;;16.00;12.40;;;-1.30;99.90;;;;;;5069931;28;20476;-70
2022/12/11 00:06:51;;;;;;;15.25;12.00;;;-1.40;99.90;;;;;;5071093;28;20388;-70
2022/12/11 00:09:17;;;;;;;16.92;12.80;;;-1.60;99.90;;;;;;5071054;28;20801;-71
2022/12/11 00:11:43;;;;;;;15.88;12.68;;;-1.70;99.90;;;;;;5070932;28;20378;-70
2022/12/11 00:14:12;;;;;;;17.63;13.20;;;-1.70;99.90;;;;;;5070262;28;20387;-70
2022/12/11 00:16:38;;;;;;;20.20;13.43;;;-1.70;99.90;;;;;;5053699;28;20388;-70
2022/12/11 00:19:03;;;;;;;15.85;11.85;;;-1.70;99.90;;;;;;5071307;28;20383;-70
2022/12/11 00:21:29;;;;;;;15.43;12.23;;;-1.60;99.90;;;;;;5070896;28;20398;-71
2022/12/11 00:23:54;;;;;;;17.70;12.90;;;-1.60;99.90;;;;;;5069797;28;20379;-71
2022/12/11 00:26:20;;;;;;;16.77;12.87;;;-1.50;99.90;;;;;;5070639;28;20505;-70
2022/12/11 00:28:46;;;;;;;17.60;12.20;;;-1.50;99.90;;;;;;5070817;28;20458;-71
2022/12/11 00:31:16;;;;;;;15.18;11.10;;;-1.50;99.90;;;;;;5052345;28;20395;-71
2022/12/11 00:33:44;;;;;;;17.52;12.60;;;-1.40;99.90;;;;;;5066388;28;20398;-71
2022/12/11 00:36:15;;;;;;;16.08;11.48;;;-1.40;99.90;;;;;;5057182;28;20476;-71
2022/12/11 00:38:42;;;;;;;14.48;11.27;;;-1.40;99.90;;;;;;5058336;28;20415;-68
2022/12/11 00:41:08;;;;;;;14.35;11.30;;;-1.30;99.90;;;;;;5072375;28;20437;-71
2022/12/11 00:43:34;;;;;;;13.38;10.77;;;-1.20;99.90;;;;;;5070550;28;20454;-70
2022/12/11 00:46:00;;;;;;;13.70;10.88;;;-1.30;99.90;;;;;;5071044;28;20392;-71
2022/12/11 00:48:25;;;;;;;12.60;10.47;;;-1.30;99.90;;;;;;5071210;28;20388;-70
2022/12/11 00:50:51;;;;;;;13.73;10.45;;;-1.30;99.90;;;;;;5070513;28;20419;-70
2022/12/11 00:53:17;;;;;;;12.77;10.52;;;-1.30;99.90;;;;;;5063267;28;20462;-70
2022/12/11 00:55:43;;;;;;;15.73;12.07;;;-1.30;99.90;;;;;;5070949;28;20388;-70
2022/12/11 00:58:10;;;;;;;15.80;11.55;;;-1.10;99.90;;;;;;5070584;28;20485;-70
2022/12/11 01:00:36;;;;;;;12.60;10.30;;;-1.20;99.90;;;;;;5070248;28;20380;-70
2022/12/11 01:03:02;;;;;;;12.25;10.05;;;-1.10;99.90;;;;;;5068988;28;20941;-69
2022/12/11 01:05:28;;;;;;;12.70;10.10;;;-1.20;99.90;;;;;;5069075;28;20383;-69
2022/12/11 01:07:53;;;;;;;13.38;10.90;;;-1.10;99.90;;;;;;5069130;28;20392;-69
2022/12/11 01:10:25;;;;;;;13.75;10.85;;;-1.20;99.90;;;;;;5068481;28;20388;-69
2022/12/11 01:13:11;;;;;;;14.35;10.75;;;-1.20;99.90;;;;;;5067952;28;20403;-70
2022/12/11 01:15:43;;;;;;;12.45;10.15;;;-1.20;99.90;;;;;;5068275;28;20816;-70
2022/12/11 01:18:10;;;;;;;14.20;10.98;;;-1.20;99.90;;;;;;5069136;28;20408;-70
2022/12/11 01:20:38;;;;;;;13.52;10.35;;;-1.20;99.90;;;;;;5068885;28;20439;-70
2022/12/11 01:23:05;;;;;;;13.97;10.60;;;-1.20;99.90;;;;;;5067922;28;20392;-71
2022/12/11 01:25:32;;;;;;;13.65;10.70;;;-1.10;99.90;;;;;;5070003;28;20929;-70
2022/12/11 01:27:58;;;;;;;13.15;10.80;;;-1.10;99.90;;;;;;5069900;28;20391;-70
2022/12/11 01:30:25;;;;;;;14.80;11.18;;;-1.00;99.90;;;;;;5069680;28;20387;-70
2022/12/11 01:32:51;;;;;;;12.93;9.73;;;-1.00;99.90;;;;;;5068162;28;20479;-70
2022/12/11 01:35:17;;;;;;;12.63;10.53;;;-1.00;99.90;;;;;;5069875;28;20474;-70
2022/12/11 01:37:44;;;;;;;13.68;10.40;;;-1.10;99.90;;;;;;5069561;28;20399;-70
2022/12/11 01:40:13;;;;;;;12.85;9.80;;;-1.00;99.90;;;;;;5051974;28;20545;-69
2022/12/11 01:42:39;;;;;;;11.70;9.45;;;-1.10;99.90;;;;;;5067472;28;20391;-70
2022/12/11 01:45:25;;;;;;;12.68;9.65;;;-1.00;99.90;;;;;;5069534;28;20387;-69
2022/12/11 01:47:59;;;;;;;10.48;8.55;;;-1.00;99.90;;;;;;5069501;28;20384;-69
2022/12/11 01:50:26;;;;;;;11.50;9.10;;;-1.00;99.90;;;;;;5069792;28;20808;-69
2022/12/11 01:52:52;;;;;;;10.95;8.40;;;-1.10;99.90;;;;;;5067673;28;20486;-69
2022/12/11 01:55:19;;;;;;;10.15;8.25;;;-1.00;99.90;;;;;;5069509;28;20471;-69
2022/12/11 01:57:48;;;;;;;11.30;9.40;;;-1.00;99.90;;;;;;5069482;28;20446;-69
2022/12/11 02:00:14;;;;;;;9.50;8.02;;;-0.90;99.90;;;;;;5069388;28;20414;-69
2022/12/11 02:02:39;;;;;;;11.27;8.00;;;-1.00;99.90;;;;;;5068219;28;20552;-69
2022/12/11 02:05:06;;;;;;;11.35;9.02;;;-1.10;99.90;;;;;;5069467;28;20487;-70
2022/12/11 02:07:39;;;;;;;11.52;8.60;;;-1.00;99.90;;;;;;5069477;28;20388;-69
2022/12/11 02:10:06;;;;;;;10.23;8.45;;;-1.10;99.90;;;;;;5055479;28;20416;-69
2022/12/11 02:12:50;;;;;;;10.73;8.60;;;-1.20;99.90;;;;;;5059856;28;20486;-69
2022/12/11 02:15:34;;;;;;;10.57;8.30;;;-1.10;99.90;;;;;;5069193;28;20384;-69
2022/12/11 02:18:44;;;;;;;11.18;8.70;;;-1.20;99.90;;;;;;5069373;28;20486;-69
2022/12/11 02:21:16;;;;;;;10.65;9.10;;;-1.20;99.90;;;;;;4986912;28;20403;-69
2022/12/11 02:24:07;;;;;;;10.20;8.82;;;-1.20;99.90;;;;;;4990492;28;20888;-69
2022/12/11 02:26:44;;;;;;;11.70;9.90;;;-1.20;99.90;;;;;;5049156;28;20379;-69
2022/12/11 02:29:20;;;;;;;13.20;9.52;;;-1.10;99.90;;;;;;5072626;28;20865;-69
2022/12/11 02:31:53;;;;;;;12.75;9.43;;;-1.20;99.90;;;;;;5071117;28;20903;-69
2022/12/11 02:34:38;;;;;;;9.45;7.82;;;-1.20;99.90;;;;;;5072026;28;20434;-69
2022/12/11 02:37:13;;;;;;;12.15;9.10;;;-1.30;99.90;;;;;;5071394;28;20396;-69
2022/12/11 02:39:42;;;;;;;10.52;8.82;;;-1.20;99.90;;;;;;5072451;28;20928;-69
2022/12/11 02:42:09;;;;;;;9.95;8.52;;;-1.10;99.90;;;;;;5071094;28;20838;-69
2022/12/11 02:44:36;;;;;;;11.23;8.70;;;-1.10;99.90;;;;;;5071893;28;20380;-69
2022/12/11 02:47:04;;;;;;;11.45;8.63;;;-1.00;99.90;;;;;;5072317;28;20391;-69
2022/12/11 02:49:32;;;;;;;8.80;7.90;;;-0.90;99.90;;;;;;5072511;28;20379;-69
2022/12/11 02:52:01;;;;;;;10.38;8.40;;;-1.00;99.90;;;;;;5071443;28;20400;-69
2022/12/11 02:54:30;;;;;;;10.90;7.93;;;-1.00;99.90;;;;;;5071507;28;20411;-69
2022/12/11 02:57:13;;;;;;;10.13;9.02;;;-1.00;99.90;;;;;;5072096;28;20969;-69
2022/12/11 02:59:42;;;;;;;9.52;8.52;;;-0.90;99.90;;;;;;5072447;28;20738;-69
2022/12/11 03:02:09;;;;;;;11.48;8.10;;;-1.00;99.90;;;;;;5071105;28;20384;-69
2022/12/11 03:04:35;;;;;;;9.10;7.65;;;-0.90;99.90;;;;;;5071285;28;20437;-69
2022/12/11 03:07:10;;;;;;;9.38;8.02;;;-0.80;99.90;;;;;;5072137;28;20387;-69
2022/12/11 03:09:40;;;;;;;10.18;7.88;;;-0.90;99.90;;;;;;5071970;28;20383;-69
2022/12/11 03:12:10;;;;;;;8.63;7.70;;;-1.00;99.90;;;;;;5051876;28;20431;-69
2022/12/11 03:14:37;;;;;;;9.48;8.00;;;-1.00;99.90;;;;;;5051298;28;20377;-69
2022/12/11 03:17:15;;;;;;;9.97;8.20;;;-1.00;99.90;;;;;;5051889;28;20581;-69
2022/12/11 03:19:44;;;;;;;9.13;8.20;;;-1.00;99.90;;;;;;5052345;28;20457;-70
2022/12/11 03:22:37;;;;;;;9.57;7.80;;;-1.10;99.90;;;;;;5071349;28;20388;-70
2022/12/11 03:25:09;;;;;;;9.82;8.60;;;-1.00;99.90;;;;;;5071948;28;20379;-69
2022/12/11 03:28:03;;;;;;;9.77;7.60;;;-1.00;99.90;;;;;;5071678;28;20391;-69
2022/12/11 03:30:33;;;;;;;9.93;8.27;;;-1.10;99.90;;;;;;5043213;28;20411;-69
2022/12/11 03:33:10;;;;;;;10.95;8.52;;;-1.10;99.90;;;;;;5070023;28;20399;-69
2022/12/11 03:35:52;;;;;;;10.90;8.20;;;-1.10;99.90;;;;;;5071474;28;20737;-69
2022/12/11 03:38:23;;;;;;;9.80;8.80;;;-1.10;99.90;;;;;;5071456;28;20486;-69
2022/12/11 03:40:52;;;;;;;10.50;8.38;;;-1.00;99.90;;;;;;5071610;28;20383;-69
2022/12/11 03:43:20;;;;;;;10.75;8.18;;;-1.00;99.90;;;;;;5069859;28;20425;-69
2022/12/11 03:45:47;;;;;;;10.00;8.57;;;-1.10;99.90;;;;;;5071314;28;20949;-69
2022/12/11 03:48:14;;;;;;;9.63;8.48;;;-1.20;99.90;;;;;;5071329;28;21112;-69
2022/12/11 03:50:41;;;;;;;11.02;9.05;;;-1.20;99.90;;;;;;5071152;28;20424;-69
2022/12/11 03:53:07;;;;;;;12.00;9.20;;;-1.20;99.90;;;;;;5051813;28;21143;-69
2022/12/11 03:55:36;;;;;;;11.20;9.70;;;-1.30;99.90;;;;;;5071244;28;20415;-69
2022/12/11 03:58:02;;;;;;;10.50;8.60;;;-1.20;99.90;;;;;;5070588;28;20781;-69
2022/12/11 04:00:28;;;;;;;10.98;9.18;;;-1.20;99.90;;;;;;5070671;28;20391;-69
2022/12/11 04:03:12;;;;;;;9.57;8.43;;;-1.30;99.90;;;;;;5069185;28;20501;-69
2022/12/11 04:05:42;;;;;;;10.50;9.20;;;-1.30;99.90;;;;;;5070482;28;20371;-69
2022/12/11 04:08:07;;;;;;;11.75;8.65;;;-1.30;99.90;;;;;;5070412;28;20392;-69
2022/12/11 04:10:33;;;;;;;11.20;8.90;;;-1.20;99.90;;;;;;5052096;28;20406;-69
2022/12/11 04:12:58;;;;;;;10.23;8.70;;;-1.30;99.90;;;;;;5065179;28;20430;-69
2022/12/11 04:15:24;;;;;;;10.37;8.77;;;-1.30;99.90;;;;;;5070451;28;20396;-69
2022/12/11 04:26:11;;;;;;;11.40;8.65;;;-1.40;99.90;;;;;;5070507;28;20793;-69
2022/12/11 04:28:37;;;;;;;10.02;8.50;;;-1.20;99.90;;;;;;5070926;28;20886;-69
2022/12/11 04:31:03;;;;;;;11.00;7.47;;;-1.30;99.90;;;;;;5070691;28;20850;-69
2022/12/11 04:33:29;;;;;;;10.57;8.07;;;-1.30;99.90;;;;;;5068717;28;20399;-69
2022/12/11 04:35:59;;;;;;;9.60;8.40;;;-1.20;99.90;;;;;;5070980;28;20388;-69
2022/12/11 04:38:25;;;;;;;8.63;7.68;;;-1.20;99.90;;;;;;5070255;28;20429;-69
2022/12/11 04:40:59;;;;;;;9.68;7.53;;;-1.10;99.90;;;;;;5070243;28;20386;-69
2022/12/11 04:43:24;;;;;;;8.90;8.00;;;-1.10;99.90;;;;;;5068555;28;20423;-69
2022/12/11 04:45:50;;;;;;;12.50;8.40;;;-1.00;99.90;;;;;;5070660;28;20404;-69
2022/12/11 04:48:15;;;;;;;8.90;7.60;;;-1.10;99.90;;;;;;5070382;28;20430;-69
2022/12/11 04:50:41;;;;;;;10.83;8.70;;;-1.10;99.90;;;;;;5070075;28;20815;-69
2022/12/11 04:53:06;;;;;;;10.00;8.40;;;-1.10;99.90;;;;;;5068775;28;20490;-69
2022/12/11 04:55:32;;;;;;;9.47;8.20;;;-1.10;99.90;;;;;;5070565;28;20392;-69
2022/12/11 04:57:57;;;;;;;11.33;8.27;;;-1.10;99.90;;;;;;5070271;28;20403;-69
2022/12/11 05:00:23;;;;;;;9.37;7.73;;;-1.20;99.90;;;;;;5070814;28;20379;-70
2022/12/11 05:02:48;;;;;;;9.27;7.97;;;-1.20;99.90;;;;;;5069108;28;20380;-70
2022/12/11 05:05:14;;;;;;;9.37;8.17;;;-1.20;99.90;;;;;;5070420;28;20384;-69
2022/12/11 05:07:39;;;;;;;9.57;8.10;;;-1.30;99.90;;;;;;5069534;28;21068;-69
2022/12/11 05:10:06;;;;;;;10.33;7.73;;;-1.40;99.90;;;;;;5056292;28;20469;-69
2022/12/11 05:12:32;;;;;;;8.85;7.95;;;-1.40;99.90;;;;;;5059971;28;20411;-69
2022/12/11 05:14:57;;;;;;;9.95;8.60;;;-1.40;99.90;;;;;;5070144;28;20388;-69
2022/12/11 05:17:23;;;;;;;9.95;8.40;;;-1.40;99.90;;;;;;5070222;28;20395;-69
2022/12/11 05:19:49;;;;;;;10.35;8.15;;;-1.40;99.90;;;;;;5070256;28;20872;-69
2022/12/11 05:22:16;;;;;;;11.30;8.68;;;-1.40;99.90;;;;;;5069982;28;20854;-69
2022/12/11 05:24:42;;;;;;;10.27;8.48;;;-1.40;99.90;;;;;;5051512;28;20383;-70
2022/12/11 05:27:08;;;;;;;11.82;8.30;;;-1.50;99.90;;;;;;5070359;28;20395;-70
2022/12/11 05:29:34;;;;;;;10.75;8.68;;;-1.50;99.90;;;;;;5070086;28;20407;-69
2022/12/11 05:32:00;;;;;;;10.73;9.00;;;-1.50;99.90;;;;;;5069992;28;20419;-70
2022/12/11 05:34:25;;;;;;;10.77;9.00;;;-1.60;99.90;;;;;;5069512;28;20394;-70
2022/12/11 05:36:51;;;;;;;11.35;9.23;;;-1.60;99.90;;;;;;5052163;28;20789;-69
2022/12/11 05:39:16;;;;;;;11.57;9.93;;;-1.70;99.90;;;;;;5070139;28;20796;-69
2022/12/11 05:41:42;;;;;;;10.60;8.77;;;-1.70;99.90;;;;;;5069034;28;20943;-68
2022/12/11 05:44:11;;;;;;;12.97;9.13;;;-1.60;99.90;;;;;;5069142;28;20449;-69
2022/12/11 05:46:37;;;;;;;11.60;9.30;;;-1.80;99.90;;;;;;5069925;28;20406;-69
2022/12/11 05:49:03;;;;;;;13.07;9.10;;;-1.70;99.90;;;;;;5069924;28;20761;-69
2022/12/11 05:51:28;;;;;;;12.95;9.68;;;-1.90;99.90;;;;;;5069020;28;20766;-69
2022/12/11 05:53:55;;;;;;;11.98;9.05;;;-1.90;99.90;;;;;;5069293;28;20406;-69
2022/12/11 05:56:30;;;;;;;13.48;8.93;;;-1.90;99.90;;;;;;5070338;28;20379;-69
2022/12/11 05:58:56;;;;;;;12.30;10.07;;;-1.90;99.90;;;;;;5073745;28;20959;-70
2022/12/11 06:01:25;;;;;;;12.20;9.20;;;-1.90;99.90;;;;;;5071886;28;20390;-70
2022/12/11 06:03:52;;;;;;;11.77;9.50;;;-2.10;99.90;;;;;;5073008;28;20463;-70
2022/12/11 06:06:17;;;;;;;11.55;9.48;;;-2.00;99.90;;;;;;5073734;28;20388;-69
2022/12/11 06:08:43;;;;;;;10.70;8.80;;;-2.10;99.90;;;;;;5073630;28;20387;-70
2022/12/11 06:11:12;;;;;;;11.27;8.73;;;-2.10;99.90;;;;;;5073384;28;20391;-69
2022/12/11 06:13:37;;;;;;;11.43;8.73;;;-2.10;99.90;;;;;;5072408;28;20387;-69
2022/12/11 06:16:05;;;;;;;9.88;8.57;;;-2.20;99.90;;;;;;5073561;28;20410;-69
2022/12/11 06:18:31;;;;;;;11.10;9.23;;;-2.30;99.90;;;;;;5073243;28;20399;-69
2022/12/11 06:20:57;;;;;;;10.10;8.50;;;-2.20;99.90;;;;;;5073431;28;20402;-69
2022/12/11 06:23:22;;;;;;;11.00;9.53;;;-2.30;99.90;;;;;;5071769;28;20391;-69
2022/12/11 06:25:48;;;;;;;13.00;9.63;;;-2.40;99.90;;;;;;5073360;28;20402;-69
2022/12/11 06:28:13;;;;;;;11.23;8.83;;;-2.30;99.90;;;;;;5073141;28;20479;-69
2022/12/11 06:30:39;;;;;;;10.83;9.00;;;-2.40;99.90;;;;;;5073220;28;20402;-69
2022/12/11 06:33:05;;;;;;;10.27;8.27;;;-2.50;99.90;;;;;;5072150;28;20965;-69
2022/12/11 06:35:30;;;;;;;9.97;8.53;;;-2.60;99.90;;;;;;5072871;28;20387;-69
2022/12/11 06:37:56;;;;;;;11.13;8.50;;;-2.60;99.90;;;;;;5054997;28;20411;-69
2022/12/11 06:40:22;;;;;;;12.30;9.00;;;-2.60;99.90;;;;;;5072908;28;20467;-69
2022/12/11 06:42:47;;;;;;;11.50;9.20;;;-2.70;99.90;;;;;;5071612;28;20770;-69
2022/12/11 06:45:13;;;;;;;12.83;9.30;;;-2.70;99.90;;;;;;5072765;28;20375;-69
2022/12/11 06:47:38;;;;;;;11.87;9.97;;;-2.80;99.90;;;;;;5072995;28;20375;-69
2022/12/11 06:50:04;;;;;;;11.50;9.10;;;-2.80;99.90;;;;;;5072852;28;20475;-71
2022/12/11 06:52:29;;;;;;;11.88;9.45;;;-2.80;99.90;;;;;;5071437;28;20474;-70
2022/12/11 06:54:56;;;;;;;11.45;9.32;;;-2.90;99.90;;;;;;5072132;28;20869;-70
2022/12/11 06:57:22;;;;;;;14.45;10.50;;;-2.90;99.90;;;;;;5072528;28;20432;-70
2022/12/11 06:59:47;;;;;;;10.98;8.80;;;-2.90;99.90;;;;;;5072628;28;20434;-70
2022/12/11 07:02:15;;;;;;;12.53;8.80;;;-2.90;99.90;;;;;;5070244;28;20391;-70
2022/12/11 07:04:41;;;;;;;10.82;8.88;;;-2.90;99.90;;;;;;5071380;28;20445;-70
2022/12/11 07:07:08;;;;;;;10.50;9.05;;;-2.90;99.90;;;;;;5072683;28;20384;-69
2022/12/11 07:09:35;;;;;;;11.05;8.73;;;-2.90;99.90;;;;;;5071137;28;20466;-69
2022/12/11 07:12:02;;;;;;;11.88;9.40;;;-3.00;99.90;;;;;;5071742;28;20398;-70
2022/12/11 07:14:29;;;;;;;12.02;8.85;;;-2.90;99.90;;;;;;5071682;28;20851;-70
2022/12/11 07:16:55;;;;;;;10.57;8.50;;;-2.90;99.90;;;;;;5072195;28;20746;-70
2022/12/11 07:19:20;;;;;;;10.57;8.50;;;-3.00;99.90;;;;;;5072409;28;20386;-71
2022/12/11 07:21:46;;;;;;;10.73;8.80;;;-2.90;99.90;;;;;;5072010;28;20404;-71
2022/12/11 07:24:11;;;;;;;9.80;8.25;;;-3.00;99.90;;;;;;5071332;28;20380;-69
2022/12/11 07:26:37;;;;;;;11.38;8.93;;;-3.10;99.90;;;;;;5053944;28;20395;-69
2022/12/11 07:29:03;;;;;;;11.63;8.60;;;-3.10;99.90;;;;;;5072110;28;20774;-69
2022/12/11 07:31:29;;;;;;;11.98;8.93;;;-3.00;99.90;;;;;;5071329;28;20392;-69
2022/12/11 07:33:56;;;;;;;11.90;9.20;;;-3.10;99.90;;;;;;5071332;28;20386;-70
2022/12/11 07:36:23;;;;;;;11.85;9.18;;;-3.20;99.90;;;;;;5071983;28;20429;-71
2022/12/11 07:38:48;;;;;;;10.73;8.82;;;-3.10;99.90;;;;;;5054108;28;20435;-71
2022/12/11 07:41:15;;;;;;;12.63;9.27;;;-3.20;99.90;;;;;;5068404;28;20423;-71
2022/12/11 07:43:41;;;;;;;13.10;9.15;;;-3.20;99.90;;;;;;5068786;28;20894;-71
2022/12/11 07:46:13;;;;;;;10.40;8.65;;;-3.10;99.90;;;;;;5071577;28;20411;-69
2022/12/11 07:48:40;;;;;;;11.32;8.90;;;-3.10;99.90;;;;;;5054575;28;20440;-70
2022/12/11 07:51:09;;;;;;;10.77;8.40;;;-3.20;99.90;;;;;;5071132;28;20390;-69
2022/12/11 07:53:35;;;;;;;12.07;8.98;;;-3.20;99.90;;;;;;5069935;28;20399;-70
2022/12/11 07:56:00;;;;;;;14.57;11.02;;;-3.10;99.90;;;;;;5053390;28;20919;-70
2022/12/11 07:58:27;;;;;;;12.63;10.43;;;-2.80;99.90;;;;;;5052664;28;20500;-70
2022/12/11 08:00:52;;;;;;;13.70;11.10;;;-2.80;99.90;;;;;;5070913;28;20376;-70
2022/12/11 08:03:18;;;;;;;15.43;11.13;;;-2.60;99.90;;;;;;5068843;28;20931;-70
2022/12/11 08:05:51;;;;;;;15.43;11.40;;;-2.30;99.90;;;;;;5071175;28;20379;-70
2022/12/11 08:08:17;;;;;;;14.63;10.50;;;-2.40;99.90;;;;;;5070182;28;20392;-70
2022/12/11 08:10:42;;;;;;;16.33;11.90;;;-2.40;99.90;;;;;;5070641;28;20449;-70
2022/12/11 08:13:08;;;;;;;14.77;11.00;;;-2.20;99.90;;;;;;5069205;28;20906;-70
2022/12/11 08:15:34;;;;;;;14.75;11.10;;;-1.90;99.90;;;;;;5071250;28;20467;-70
2022/12/11 08:18:00;;;;;;;15.07;12.10;;;-2.00;99.90;;;;;;5069825;28;20407;-70
2022/12/11 08:20:25;;;;;;;15.33;11.13;;;-2.00;99.90;;;;;;5070727;28;20877;-70
2022/12/11 08:22:51;;;;;;;15.10;11.50;;;-1.80;99.90;;;;;;5070301;28;20441;-70
2022/12/11 08:25:16;;;;;;;18.70;12.70;;;-1.50;99.90;;;;;;5071048;28;20380;-70
2022/12/11 08:27:42;;;;;;;15.67;12.30;;;-1.30;99.90;;;;;;5070999;28;20402;-70
2022/12/11 08:30:08;;;;;;;15.83;11.70;;;-1.30;99.90;;;;;;5070902;28;20793;-70
2022/12/11 08:32:34;;;;;;;17.00;12.38;;;-1.30;99.90;;;;;;5070277;28;20379;-70
2022/12/11 08:35:00;;;;;;;15.37;11.97;;;-1.10;99.90;;;;;;5070943;28;20387;-70
2022/12/11 08:37:26;;;;;;;15.02;11.75;;;-1.20;99.90;;;;;;5071073;28;20832;-70
2022/12/11 08:39:51;;;;;;;14.27;11.57;;;-1.30;99.90;;;;;;5071062;28;20380;-70
2022/12/11 08:42:17;;;;;;;14.80;12.10;;;-1.10;99.90;;;;;;5070728;28;20426;-70
2022/12/11 08:44:42;;;;;;;14.07;11.40;;;-1.40;99.90;;;;;;5069901;28;20391;-70
2022/12/11 08:47:08;;;;;;;15.37;12.77;;;-1.40;99.90;;;;;;5071002;28;20873;-70
2022/12/11 08:49:34;;;;;;;15.68;11.65;;;-1.10;99.90;;;;;;5070655;28;20467;-70
2022/12/11 08:52:02;;;;;;;14.13;10.38;;;-1.00;99.90;;;;;;5070543;28;20400;-70
2022/12/11 08:54:27;;;;;;;13.95;11.10;;;-1.10;99.90;;;;;;5069846;28;20462;-70
2022/12/11 08:56:53;;;;;;;16.30;12.27;;;-1.00;99.90;;;;;;5070251;28;20486;-70
2022/12/11 08:59:18;;;;;;;13.63;10.67;;;-1.00;99.90;;;;;;5070714;28;20411;-70
2022/12/11 09:01:44;;;;;;;15.53;11.73;;;-1.00;99.90;;;;;;5070601;28;20382;-70
2022/12/11 09:04:09;;;;;;;16.27;11.75;;;-1.30;99.90;;;;;;5069956;28;20747;-70
2022/12/11 09:06:35;;;;;;;17.30;12.32;;;-1.50;99.90;;;;;;5070400;28;20879;-70
2022/12/11 09:09:00;;;;;;;18.38;12.75;;;-1.80;99.90;;;;;;5071046;28;20391;-70
2022/12/11 09:11:29;;;;;;;15.63;12.70;;;-1.80;99.90;;;;;;5070318;28;20394;-70
2022/12/11 09:13:55;;;;;;;15.23;10.98;;;-1.80;99.90;;;;;;5069800;28;20388;-70
2022/12/11 09:16:23;;;;;;;14.07;10.50;;;-1.90;99.90;;;;;;5070159;28;20427;-70
2022/12/11 09:18:51;;;;;;;13.75;10.82;;;-2.00;99.90;;;;;;5070536;28;20426;-70
2022/12/11 09:21:19;;;;;;;15.43;10.32;;;-1.60;99.90;;;;;;5070470;28;20376;-70
2022/12/11 09:23:45;;;;;;;14.57;11.50;;;-1.90;99.90;;;;;;5069625;28;20936;-70
2022/12/11 09:26:13;;;;;;;14.00;10.80;;;-1.70;99.90;;;;;;5070002;28;20475;-70
2022/12/11 09:28:40;;;;;;;14.90;10.82;;;-1.70;99.90;;;;;;5070308;28;20395;-70
2022/12/11 09:31:11;;;;;;;16.23;12.55;;;-1.50;99.90;;;;;;5070037;28;20453;-70
2022/12/11 09:33:37;;;;;;;15.57;12.85;;;-1.40;99.90;;;;;;5073228;28;20449;-70
2022/12/11 09:36:04;;;;;;;15.20;12.77;;;-1.30;99.90;;;;;;5074194;28;20380;-70
2022/12/11 09:38:30;;;;;;;16.58;13.32;;;-1.60;99.90;;;;;;5074058;28;20838;-70
2022/12/11 09:40:55;;;;;;;16.95;12.50;;;-1.70;99.90;;;;;;5073549;28;20390;-70
2022/12/11 09:43:40;;;;;;;16.30;12.57;;;-1.60;99.90;;;;;;5073442;28;20375;-70
2022/12/11 09:46:10;;;;;;;16.67;10.68;;;-1.50;99.90;;;;;;5074320;28;20888;-70
2022/12/11 09:48:38;;;;;;;12.35;10.05;;;-1.60;99.90;;;;;;5074004;28;20866;-70
2022/12/11 09:51:17;;;;;;;13.57;10.57;;;-1.50;99.90;;;;;;5073437;28;20906;-70
2022/12/11 09:53:43;;;;;;;14.07;10.93;;;-1.40;99.90;;;;;;5073436;28;20471;-70
2022/12/11 09:56:08;;;;;;;11.53;9.57;;;-1.30;99.90;;;;;;5073948;28;20503;-70
2022/12/11 09:58:58;;;;;;;12.80;10.40;;;-1.20;99.90;;;;;;5073800;28;20818;-70
2022/12/11 10:01:51;;;;;;;13.63;11.10;;;-1.30;99.90;;;;;;5073642;28;20727;-70
2022/12/11 10:04:16;;;;;;;14.32;11.57;;;-1.20;99.90;;;;;;5073120;28;20780;-70
2022/12/11 10:06:50;;;;;;;14.43;11.03;;;-1.30;99.90;;;;;;5073619;28;20376;-70
2022/12/11 10:09:18;;;;;;;13.43;10.70;;;-1.20;99.90;;;;;;5073718;28;20395;-70
2022/12/11 10:11:53;;;;;;;13.27;10.57;;;-0.90;99.90;;;;;;5073363;28;20394;-70
2022/12/11 10:14:31;;;;;;;14.80;10.98;;;-0.90;99.90;;;;;;5072825;28;20394;-70
2022/12/11 10:17:19;;;;;;;13.03;9.80;;;-0.80;99.90;;;;;;5055388;28;20492;-70
2022/12/11 10:19:45;;;;;;;12.88;10.20;;;-0.80;99.90;;;;;;5073588;28;20372;-70
2022/12/11 10:22:22;;;;;;;12.60;9.90;;;-0.80;99.90;;;;;;5072981;28;20379;-70
2022/12/11 10:25:00;;;;;;;15.02;10.05;;;-1.00;99.90;;;;;;5072702;28;20371;-70
2022/12/11 10:27:31;;;;;;;11.33;9.60;;;-1.00;99.90;;;;;;5073134;28;20726;-70
2022/12/11 10:30:20;;;;;;;12.60;9.60;;;-0.80;99.90;;;;;;5073427;28;20383;-70
2022/12/11 10:33:17;;;;;;;9.40;8.15;;;-0.70;99.90;;;;;;5071805;28;20467;-70
2022/12/11 10:35:53;;;;;;;9.60;8.40;;;-0.70;99.90;;;;;;5073084;28;20383;-70
2022/12/11 10:38:26;;;;;;;10.93;8.90;;;-0.70;99.90;;;;;;5072807;28;20449;-70
2022/12/11 10:40:58;;;;;;;11.93;8.48;;;-0.50;99.90;;;;;;5055210;28;20958;-71
2022/12/11 10:43:41;;;;;;;9.80;7.70;;;-0.70;99.90;;;;;;5070959;28;20392;-71
2022/12/11 10:46:18;;;;;;;10.68;8.30;;;-0.90;99.90;;;;;;5072126;28;20392;-70
2022/12/11 10:48:52;;;;;;;13.65;10.57;;;-0.90;99.90;;;;;;5072375;28;20396;-70
2022/12/11 10:51:19;;;;;;;12.07;10.02;;;-0.60;99.90;;;;;;5071915;28;20596;-70
2022/12/11 10:53:50;;;;;;;10.52;9.18;;;-0.60;99.90;;;;;;5063962;28;20471;-70
2022/12/11 10:56:27;;;;;;;13.13;10.68;;;-0.70;99.90;;;;;;5072833;28;20414;-70
2022/12/11 10:58:56;;;;;;;13.40;10.97;;;-0.30;99.90;;;;;;5071385;28;20911;-70
2022/12/11 11:01:25;;;;;;;11.40;8.88;;;0.00;99.90;;;;;;5069534;28;20392;-69
2022/12/11 11:04:05;;;;;;;11.63;9.85;;;-0.40;99.90;;;;;;5068243;28;20389;-70
2022/12/11 11:06:31;;;;;;;12.82;10.55;;;-0.10;99.90;;;;;;5071785;28;20387;-70
2022/12/11 11:09:01;;;;;;;12.63;10.40;;;0.30;99.90;;;;;;5072273;28;20412;-70
2022/12/11 11:11:35;;;;;;;10.67;9.57;;;0.70;99.90;;;;;;5071462;28;20796;-70
2022/12/11 11:14:14;;;;;;;11.75;9.25;;;0.90;99.90;;;;;;5071711;28;20395;-70
2022/12/11 11:16:41;;;;;;;12.93;9.35;;;1.40;99.90;;;;;;5072587;28;20463;-71
2022/12/11 11:19:35;;;;;;;12.18;9.00;;;1.70;99.90;;;;;;5072279;28;20461;-71
2022/12/11 11:22:06;;;;;;;9.80;8.02;;;1.40;99.90;;;;;;5068163;28;20392;-71
2022/12/11 11:24:52;;;;;;;10.53;9.23;;;1.60;99.90;;;;;;5062800;28;20392;-71
2022/12/11 11:27:33;;;;;;;12.27;10.30;;;1.80;99.90;;;;;;5071685;28;20403;-71
2022/12/11 11:30:15;;;;;;;15.27;12.02;;;2.00;99.90;;;;;;5068471;28;20388;-70
2022/12/11 11:32:41;;;;;;;15.35;12.30;;;2.20;99.90;;;;;;5070084;28;20399;-70
2022/12/11 11:35:12;;;;;;;14.20;12.40;;;2.30;99.90;;;;;;5072196;28;20916;-70
2022/12/11 11:37:40;;;;;;;15.13;12.30;;;2.40;99.90;;;;;;5071761;28;20450;-70
2022/12/11 11:40:36;;;;;;;18.00;13.52;;;1.60;99.90;;;;;;5071836;28;21023;-70
2022/12/11 11:43:34;;;;;;;14.05;12.55;;;1.50;99.90;;;;;;5051982;28;20431;-71
2022/12/11 11:46:07;;;;;;;16.45;13.45;;;1.90;99.90;;;;;;5065973;28;20453;-69
2022/12/11 11:49:10;;;;;;;15.77;13.50;;;1.80;99.90;;;;;;5072015;28;20376;-70
2022/12/11 11:51:44;;;;;;;18.02;14.02;;;1.60;99.90;;;;;;5070542;28;20486;-71
2022/12/11 11:54:24;;;;;;;18.73;13.60;;;0.90;99.90;;;;;;5069909;28;20430;-69
2022/12/11 11:56:52;;;;;;;17.13;13.73;;;0.80;99.90;;;;;;5071675;28;20389;-69
2022/12/11 11:59:30;;;;;;;18.73;14.35;;;0.70;99.90;;;;;;5070496;28;20422;-69
2022/12/11 12:01:56;;;;;;;16.48;13.80;;;0.70;99.90;;;;;;5071107;28;20423;-69
2022/12/11 12:04:22;;;;;;;18.70;14.68;;;0.60;99.90;;;;;;5070477;28;20778;-70
2022/12/11 12:07:09;;;;;;;18.95;14.23;;;0.90;99.90;;;;;;5071725;28;20456;-69
2022/12/11 12:10:06;;;;;;;19.65;14.32;;;0.10;99.90;;;;;;5071346;28;20474;-70
2022/12/11 12:12:59;;;;;;;17.87;14.23;;;0.50;99.90;;;;;;5069156;28;20474;-69
2022/12/11 12:15:37;;;;;;;18.25;14.60;;;0.10;99.90;;;;;;5070863;28;20414;-70
2022/12/11 12:18:22;;;;;;;21.73;15.30;;;0.20;99.90;;;;;;5071108;28;20904;-69
2022/12/11 12:20:59;;;;;;;20.53;14.57;;;0.00;99.90;;;;;;5068795;28;20494;-69
2022/12/11 12:23:42;;;;;;;19.70;14.30;;;0.10;99.90;;;;;;5069832;28;20372;-69
2022/12/11 12:26:20;;;;;;;18.83;14.55;;;0.30;99.90;;;;;;5049894;28;20919;-70
2022/12/11 12:29:13;;;;;;;21.42;15.13;;;0.50;99.90;;;;;;5067865;28;20391;-70
2022/12/11 12:32:11;;;;;;;18.92;14.00;;;-0.10;99.90;;;;;;5051244;28;20977;-70
2022/12/11 12:35:03;;;;;;;18.60;13.85;;;0.10;99.90;;;;;;5054888;28;20391;-69
2022/12/11 12:37:44;;;;;;;18.83;14.60;;;-0.40;99.90;;;;;;5070838;28;20399;-70
2022/12/11 12:40:18;;;;;;;20.02;15.18;;;-0.40;99.90;;;;;;5067551;28;20945;-70
2022/12/11 12:42:53;;;;;;;19.60;15.05;;;-0.70;99.90;;;;;;5068442;28;20391;-70
2022/12/11 12:45:45;;;;;;;20.83;14.80;;;-0.70;99.90;;;;;;5070520;28;20758;-69
2022/12/11 12:48:10;;;;;;;21.40;14.47;;;-0.60;99.90;;;;;;5064705;28;20426;-69
2022/12/11 12:50:41;;;;;;;20.50;14.70;;;-0.90;99.90;;;;;;5070588;28;20426;-69
2022/12/11 12:53:11;;;;;;;20.00;15.10;;;-1.00;99.90;;;;;;5067772;28;20403;-70
2022/12/11 12:55:38;;;;;;;18.85;14.80;;;-0.90;99.90;;;;;;5052367;28;20470;-70
2022/12/11 12:58:06;;;;;;;23.63;16.00;;;-0.80;99.90;;;;;;5070189;28;20411;-70
2022/12/11 13:00:33;;;;;;;18.25;14.05;;;-1.10;99.90;;;;;;5070617;28;20384;-70